createdAt,value
2018-09-05T00:00:04.375Z,7.50
2018-09-05T00:02:33.402Z,8.18
2018-09-05T00:05:03.164Z,7.50
2018-09-05T00:07:32.453Z,6.90
2018-09-05T00:10:02.427Z,7.85
2018-09-05T00:12:31.652Z,7.60
2018-09-05T00:15:01.152Z,7.15
2018-09-05T00:17:30.236Z,7.08
2018-09-05T00:19:59.375Z,7.53
2018-09-05T00:22:28.696Z,7.72
2018-09-05T00:24:57.749Z,6.95
2018-09-05T00:27:27.019Z,6.95
2018-09-05T00:29:56.024Z,7.30
2018-09-05T00:32:25.081Z,6.62
2018-09-05T00:34:54.869Z,6.80
2018-09-05T00:37:23.928Z,6.53
2018-09-05T00:39:52.874Z,6.47
2018-09-05T00:42:21.725Z,6.45
2018-09-05T00:44:50.643Z,6.87
2018-09-05T00:47:19.628Z,6.55
2018-09-05T00:49:48.524Z,7.00
2018-09-05T00:52:17.560Z,6.37
2018-09-05T00:54:46.462Z,6.80
2018-09-05T00:57:15.389Z,6.62
2018-09-05T00:59:44.324Z,7.15
2018-09-05T01:02:13.253Z,7.47
2018-09-05T01:04:42.204Z,6.90
2018-09-05T01:07:22.066Z,6.83
2018-09-05T01:09:50.934Z,6.62
2018-09-05T01:12:21.210Z,6.90
2018-09-05T01:14:51.545Z,6.35
2018-09-05T01:17:20.710Z,6.92
2018-09-05T01:19:49.721Z,6.08
2018-09-05T01:22:18.644Z,7.45
2018-09-05T01:24:47.537Z,6.55
2018-09-05T01:27:16.404Z,6.70
2018-09-05T01:29:45.545Z,6.37
2018-09-05T01:32:14.700Z,6.47
2018-09-05T01:34:43.596Z,6.12
2018-09-05T01:37:12.625Z,6.50
2018-09-05T01:39:41.578Z,6.40
2018-09-05T01:42:11.161Z,6.90
2018-09-05T01:44:40.614Z,6.35
2018-09-05T01:47:09.781Z,6.80
2018-09-05T01:49:38.760Z,6.72
2018-09-05T01:52:07.729Z,6.72
2018-09-05T01:54:36.699Z,7.08
2018-09-05T01:57:05.841Z,6.92
2018-09-05T01:59:34.771Z,7.20
2018-09-05T02:02:04.060Z,7.55
2018-09-05T02:04:33.141Z,7.12
2018-09-05T02:07:02.063Z,7.65
2018-09-05T02:09:31.012Z,7.03
2018-09-05T02:11:59.955Z,7.10
2018-09-05T02:14:28.976Z,7.33
2018-09-05T02:16:57.800Z,7.00
2018-09-05T02:19:26.818Z,6.85
2018-09-05T02:21:55.765Z,7.08
2018-09-05T02:24:24.568Z,7.05
2018-09-05T02:26:53.356Z,7.03
2018-09-05T02:29:22.236Z,6.70
2018-09-05T02:31:51.215Z,7.80
2018-09-05T02:34:20.340Z,7.70
2018-09-05T02:36:49.284Z,7.97
2018-09-05T02:39:18.186Z,8.18
2018-09-05T02:41:47.142Z,7.15
2018-09-05T02:44:21.093Z,7.90
2018-09-05T02:46:50.444Z,7.08
2018-09-05T02:49:19.304Z,7.15
2018-09-05T02:51:48.369Z,8.30
2018-09-05T02:54:17.229Z,8.33
2018-09-05T02:56:46.173Z,7.95
2018-09-05T02:59:15.189Z,8.28
2018-09-05T03:01:44.024Z,7.42
2018-09-05T03:04:13.002Z,8.83
2018-09-05T03:06:41.933Z,8.03
2018-09-05T03:09:10.805Z,8.78
2018-09-05T03:11:39.698Z,8.50
2018-09-05T03:14:08.678Z,8.58
2018-09-05T03:16:37.642Z,9.05
2018-09-05T03:19:06.720Z,8.63
2018-09-05T03:21:35.719Z,9.18
2018-09-05T03:24:04.672Z,9.43
2018-09-05T03:26:33.580Z,9.03
2018-09-05T03:29:02.514Z,8.78
2018-09-05T03:31:31.586Z,8.73
2018-09-05T03:34:00.599Z,9.28
2018-09-05T03:36:29.514Z,8.40
2018-09-05T03:38:58.461Z,10.13
2018-09-05T03:41:27.602Z,8.40
2018-09-05T03:43:56.709Z,9.35
2018-09-05T03:46:25.780Z,8.45
2018-09-05T03:48:55.054Z,8.88
2018-09-05T03:51:24.305Z,8.40
2018-09-05T03:53:53.172Z,8.13
2018-09-05T03:56:22.268Z,8.08
2018-09-05T03:58:51.266Z,9.03
2018-09-05T04:01:20.168Z,9.03
2018-09-05T04:03:49.018Z,9.18
2018-09-05T04:06:21.105Z,8.95
2018-09-05T04:08:51.407Z,9.38
2018-09-05T04:11:20.402Z,9.10
2018-09-05T04:13:49.813Z,9.63
2018-09-05T04:16:18.863Z,9.50
2018-09-05T04:18:47.716Z,9.98
2018-09-05T04:21:16.660Z,8.93
2018-09-05T04:23:46.655Z,9.50
2018-09-05T04:26:16.748Z,9.70
2018-09-05T04:28:45.819Z,9.63
2018-09-05T04:31:15.532Z,9.23
2018-09-05T04:33:44.511Z,8.45
2018-09-05T04:36:14.541Z,9.08
2018-09-05T04:38:44.172Z,9.00
2018-09-05T04:41:13.660Z,9.93
2018-09-05T04:43:42.610Z,9.45
2018-09-05T04:46:12.053Z,9.25
2018-09-05T04:48:41.073Z,10.28
2018-09-05T04:51:10.131Z,9.95
2018-09-05T04:53:39.631Z,11.08
2018-09-05T04:56:15.289Z,10.05
2018-09-05T04:58:44.440Z,10.05
2018-09-05T05:08:05.107Z,10.10
2018-09-05T05:10:34.027Z,10.97
2018-09-05T05:13:02.894Z,10.40
2018-09-05T05:15:35.908Z,10.97
2018-09-05T05:18:12.650Z,10.65
2018-09-05T05:20:41.603Z,10.23
2018-09-05T05:23:10.575Z,11.93
2018-09-05T05:25:39.455Z,11.30
2018-09-05T05:28:08.590Z,11.18
2018-09-05T05:30:38.011Z,10.78
2018-09-05T05:33:06.813Z,10.70
2018-09-05T05:35:35.962Z,11.65
2018-09-05T05:38:04.842Z,12.18
2018-09-05T05:40:33.772Z,11.83
2018-09-05T05:43:02.792Z,11.28
2018-09-05T05:45:31.792Z,12.35
2018-09-05T05:48:00.778Z,11.75
2018-09-05T05:50:29.852Z,12.33
2018-09-05T05:52:58.809Z,12.68
2018-09-05T05:55:27.887Z,11.20
2018-09-05T05:57:56.869Z,12.18
2018-09-05T06:00:26.583Z,12.43
2018-09-05T06:02:56.352Z,12.05
2018-09-05T06:05:25.391Z,13.13
2018-09-05T06:07:54.771Z,12.65
2018-09-05T06:10:27.682Z,13.03
2018-09-05T06:12:58.427Z,12.25
2018-09-05T06:15:28.279Z,13.75
2018-09-05T06:17:57.639Z,13.40
2018-09-05T06:20:26.589Z,13.13
2018-09-05T06:22:55.522Z,12.90
2018-09-05T06:25:24.639Z,12.57
2018-09-05T06:27:53.747Z,12.82
2018-09-05T06:30:22.920Z,13.80
2018-09-05T06:32:51.953Z,13.90
2018-09-05T06:35:21.018Z,12.67
2018-09-05T06:37:50.051Z,13.83
2018-09-05T06:40:18.917Z,12.93
2018-09-05T06:42:47.809Z,13.80
2018-09-05T06:45:17.067Z,14.33
2018-09-05T06:47:46.260Z,14.95
2018-09-05T06:50:15.168Z,14.13
2018-09-05T06:52:44.083Z,13.22
2018-09-05T06:55:13.925Z,13.67
2018-09-05T06:57:43.127Z,13.45
2018-09-05T07:00:13.438Z,13.00
2018-09-05T07:02:42.452Z,14.98
2018-09-05T07:05:11.494Z,13.55
2018-09-05T07:07:40.452Z,13.03
2018-09-05T07:10:09.403Z,13.78
2018-09-05T07:12:38.663Z,12.30
2018-09-05T07:15:08.299Z,12.25
2018-09-05T07:17:37.689Z,10.98
2018-09-05T07:20:06.678Z,13.58
2018-09-05T07:22:35.717Z,12.82
2018-09-05T07:25:04.784Z,12.75
2018-09-05T07:27:33.653Z,13.15
2018-09-05T07:30:06.902Z,12.33
2018-09-05T07:32:41.313Z,11.90
2018-09-05T07:35:14.643Z,11.75
2018-09-05T07:37:49.409Z,12.50
2018-09-05T07:40:23.070Z,12.67
2018-09-05T07:42:57.642Z,11.20
2018-09-05T07:45:31.130Z,12.03
2018-09-05T07:48:04.700Z,11.63
2018-09-05T07:50:38.298Z,12.23
2018-09-05T07:53:11.788Z,11.12
2018-09-05T07:55:44.932Z,12.55
2018-09-05T07:58:18.078Z,11.25
2018-09-05T08:00:51.463Z,11.30
2018-09-05T08:03:25.179Z,11.88
2018-09-05T08:05:58.236Z,10.82
2018-09-05T08:08:31.884Z,10.98
2018-09-05T08:11:05.099Z,10.72
2018-09-05T08:13:38.811Z,10.32
2018-09-05T08:16:12.014Z,10.60
2018-09-05T08:18:45.389Z,9.80
2018-09-05T08:21:19.360Z,9.83
2018-09-05T08:23:53.206Z,9.68
2018-09-05T08:26:26.277Z,10.43
2018-09-05T08:28:59.338Z,8.83
2018-09-05T08:31:33.214Z,8.53
2018-09-05T08:34:06.436Z,10.18
2018-09-05T08:36:40.232Z,9.43
2018-09-05T08:39:16.403Z,8.85
2018-09-05T08:41:51.525Z,9.50
2018-09-05T08:44:24.792Z,8.60
2018-09-05T08:46:58.668Z,8.33
2018-09-05T08:49:33.244Z,7.97
2018-09-05T08:52:06.983Z,9.05
2018-09-05T08:54:40.484Z,8.75
2018-09-05T08:57:14.039Z,8.73
2018-09-05T08:59:47.379Z,8.00
2018-09-05T09:02:20.895Z,8.20
2018-09-05T09:04:54.899Z,7.53
2018-09-05T09:07:29.215Z,8.10
2018-09-05T09:10:01.740Z,7.53
2018-09-05T09:12:38.081Z,7.15
2018-09-05T09:15:13.351Z,7.50
2018-09-05T09:17:47.520Z,6.95
2018-09-05T09:20:21.615Z,6.20
2018-09-05T09:22:56.249Z,7.17
2018-09-05T09:25:31.007Z,6.30
2018-09-05T09:28:06.227Z,5.47
2018-09-05T09:30:42.142Z,5.55
2018-09-05T09:33:15.863Z,6.33
2018-09-05T09:35:50.317Z,5.50
2018-09-05T09:38:25.039Z,5.55
2018-09-05T09:40:58.687Z,5.60
2018-09-05T09:43:33.636Z,4.95
2018-09-05T09:46:08.618Z,5.00
2018-09-05T09:48:43.425Z,5.00
2018-09-05T09:51:19.425Z,5.60
2018-09-05T09:53:54.950Z,5.75
2018-09-05T09:56:29.925Z,4.50
2018-09-05T09:59:04.427Z,4.75
2018-09-05T10:01:43.093Z,4.78
2018-09-05T10:04:21.435Z,4.55
2018-09-05T10:07:00.739Z,4.05
2018-09-05T10:09:38.684Z,4.03
2018-09-05T10:12:17.223Z,4.62
2018-09-05T10:14:56.560Z,4.75
2018-09-05T10:17:37.248Z,4.30
2018-09-05T10:20:10.623Z,4.26
2018-09-05T10:22:45.345Z,5.75
2018-09-05T10:25:20.003Z,9.07
2018-09-05T10:27:54.215Z,4.67
2018-09-05T10:30:29.588Z,4.80
2018-09-05T10:33:04.752Z,4.70
2018-09-05T10:35:39.264Z,4.47
2018-09-05T10:38:13.701Z,4.67
2018-09-05T10:40:47.775Z,4.40
2018-09-05T10:43:21.666Z,4.22
2018-09-05T10:45:56.753Z,4.78
2018-09-05T10:48:31.687Z,4.42
2018-09-05T10:51:06.572Z,4.10
2018-09-05T10:53:41.380Z,4.62
2018-09-05T10:56:17.241Z,3.83
2018-09-05T10:58:51.830Z,4.15
2018-09-05T11:01:25.838Z,3.95
2018-09-05T11:03:59.761Z,4.10
2018-09-05T11:06:32.615Z,4.62
2018-09-05T11:09:07.117Z,4.35
2018-09-05T11:11:41.527Z,4.55
2018-09-05T11:14:14.226Z,4.42
2018-09-05T11:16:47.249Z,4.15
2018-09-05T11:19:18.904Z,4.12
2018-09-05T11:21:48.721Z,3.95
2018-09-05T11:24:23.089Z,4.47
2018-09-05T11:26:57.044Z,3.65
2018-09-05T11:29:30.735Z,4.03
2018-09-05T11:32:03.617Z,4.28
2018-09-05T11:34:38.254Z,4.15
2018-09-05T11:37:11.726Z,4.03
2018-09-05T11:39:45.604Z,5.05
2018-09-05T11:42:18.422Z,4.00
2018-09-05T11:44:51.759Z,4.10
2018-09-05T11:47:25.985Z,3.87
2018-09-05T11:49:59.897Z,3.98
2018-09-05T11:52:37.121Z,3.90
2018-09-05T11:55:11.688Z,4.25
2018-09-05T11:57:46.460Z,3.52
2018-09-05T12:00:18.291Z,4.23
2018-09-05T12:02:51.864Z,3.55
2018-09-05T12:05:28.085Z,4.40
2018-09-05T12:08:00.549Z,4.40
2018-09-05T12:10:33.417Z,4.37
2018-09-05T12:13:07.168Z,4.15
2018-09-05T12:15:39.824Z,5.00
2018-09-05T12:18:14.940Z,3.92
2018-09-05T12:20:47.973Z,4.70
2018-09-05T12:23:22.692Z,3.83
2018-09-05T12:25:56.798Z,3.92
2018-09-05T12:28:30.388Z,4.50
2018-09-05T12:31:04.636Z,3.85
2018-09-05T12:33:37.161Z,4.40
2018-09-05T12:36:09.973Z,5.28
2018-09-05T12:38:43.013Z,6.03
2018-09-05T12:41:18.013Z,4.92
2018-09-05T12:43:51.249Z,4.47
2018-09-05T12:46:24.017Z,5.05
2018-09-05T12:48:59.731Z,5.12
2018-09-05T12:51:33.540Z,4.87
2018-09-05T12:54:07.527Z,5.25
2018-09-05T12:56:42.264Z,5.78
2018-09-05T12:59:19.379Z,5.25
2018-09-05T13:01:53.735Z,6.28
2018-09-05T13:04:29.930Z,6.75
2018-09-05T13:07:05.107Z,5.72
2018-09-05T13:09:39.382Z,6.50
2018-09-05T13:12:15.493Z,6.47
2018-09-05T13:14:49.538Z,6.75
2018-09-05T13:17:25.454Z,7.20
2018-09-05T13:20:01.169Z,7.70
2018-09-05T13:22:40.476Z,8.35
2018-09-05T13:25:19.725Z,8.83
2018-09-05T13:27:58.243Z,8.50
2018-09-05T13:30:36.242Z,9.33
2018-09-05T13:33:13.149Z,9.38
2018-09-05T13:35:50.529Z,9.18
2018-09-05T13:38:27.525Z,9.33
2018-09-05T13:41:04.850Z,10.20
2018-09-05T13:43:41.964Z,9.70
2018-09-05T13:46:19.604Z,10.00
2018-09-05T13:48:55.072Z,10.15
2018-09-05T13:51:31.231Z,10.30
2018-09-05T13:54:06.901Z,9.88
2018-09-05T13:56:41.433Z,10.45
2018-09-05T13:59:22.136Z,10.78
2018-09-05T14:01:58.283Z,10.40
2018-09-05T14:04:33.242Z,9.85
2018-09-05T14:07:09.271Z,10.82
2018-09-05T14:09:44.441Z,10.50
2018-09-05T14:12:25.370Z,10.75
2018-09-05T14:15:02.165Z,10.63
2018-09-05T14:17:41.077Z,11.53
2018-09-05T14:20:22.046Z,11.80
2018-09-05T14:22:59.124Z,12.33
2018-09-05T14:25:35.966Z,11.28
2018-09-05T14:28:11.593Z,9.85
2018-09-05T14:30:48.141Z,10.63
2018-09-05T14:33:24.578Z,9.55
2018-09-05T14:36:01.807Z,9.35
2018-09-05T14:38:39.688Z,9.60
2018-09-05T14:41:15.118Z,9.83
2018-09-05T14:43:50.425Z,9.80
2018-09-05T14:46:25.517Z,10.32
2018-09-05T14:48:59.284Z,10.20
2018-09-05T14:51:38.047Z,10.20
2018-09-05T14:54:15.146Z,8.08
2018-09-05T14:56:50.331Z,7.83
2018-09-05T14:59:27.365Z,6.75
2018-09-05T15:02:08.404Z,6.78
2018-09-05T15:04:43.959Z,6.50
2018-09-05T15:07:17.975Z,5.50
2018-09-05T15:09:50.618Z,5.33
2018-09-05T15:12:26.393Z,5.33
2018-09-05T15:15:01.918Z,5.62
2018-09-05T15:17:36.893Z,4.62
2018-09-05T15:20:13.914Z,5.00
2018-09-05T15:22:50.458Z,5.20
2018-09-05T15:25:25.161Z,5.17
2018-09-05T15:28:00.096Z,5.20
2018-09-05T15:30:37.407Z,4.95
2018-09-05T15:33:11.973Z,5.30
2018-09-05T15:35:50.356Z,4.95
2018-09-05T15:38:25.604Z,4.67
2018-09-05T15:41:00.516Z,7.70
2018-09-05T15:43:36.852Z,5.12
2018-09-05T15:46:16.934Z,4.87
2018-09-05T15:48:51.609Z,6.03
2018-09-05T15:51:26.860Z,5.12
2018-09-05T15:54:02.848Z,4.75
2018-09-05T15:56:39.613Z,5.40
2018-09-05T15:59:14.689Z,5.03
2018-09-05T16:01:49.213Z,5.28
2018-09-05T16:04:24.527Z,5.20
2018-09-05T16:07:00.959Z,4.78
2018-09-05T16:09:35.224Z,4.78
2018-09-05T16:12:09.390Z,4.92
2018-09-05T16:14:45.364Z,4.87
2018-09-05T16:17:27.463Z,6.45
2018-09-05T16:19:59.917Z,5.00
2018-09-05T16:22:28.719Z,5.20
2018-09-05T16:24:57.609Z,5.47
2018-09-05T16:27:31.807Z,5.17
2018-09-05T16:30:07.210Z,5.00
2018-09-05T16:32:42.763Z,4.53
2018-09-05T16:35:17.716Z,5.30
2018-09-05T16:37:52.857Z,5.22
2018-09-05T16:40:25.404Z,4.87
2018-09-05T16:42:59.183Z,4.67
2018-09-05T16:45:32.954Z,5.25
2018-09-05T16:48:05.781Z,5.25
2018-09-05T16:50:42.107Z,5.37
2018-09-05T16:53:10.907Z,4.45
2018-09-05T16:55:46.058Z,4.65
2018-09-05T16:58:23.017Z,4.53
2018-09-05T17:01:00.256Z,4.50
2018-09-05T17:03:35.983Z,4.78
2018-09-05T17:06:12.243Z,4.97
2018-09-05T17:08:48.020Z,4.70
2018-09-05T17:11:23.617Z,4.80
2018-09-05T17:13:59.687Z,4.80
2018-09-05T17:16:34.041Z,4.53
2018-09-05T17:19:09.554Z,4.85
2018-09-05T17:21:45.023Z,3.75
2018-09-05T17:24:20.376Z,4.72
2018-09-05T17:26:56.940Z,4.08
2018-09-05T17:29:32.533Z,4.33
2018-09-05T17:32:09.393Z,4.70
2018-09-05T17:34:44.458Z,4.70
2018-09-05T17:37:18.914Z,4.62
2018-09-05T17:39:54.470Z,4.55
2018-09-05T17:45:16.987Z,4.97
2018-09-05T17:47:46.033Z,4.30
2018-09-05T17:50:15.296Z,10.37
2018-09-05T17:52:44.268Z,4.85
2018-09-05T17:55:13.484Z,5.30
2018-09-05T17:57:42.385Z,4.70
2018-09-05T18:00:11.504Z,4.62
2018-09-05T18:02:40.560Z,4.62
2018-09-05T18:05:09.722Z,5.22
2018-09-05T18:07:38.783Z,4.28
2018-09-05T18:10:08.210Z,4.05
2018-09-05T18:12:37.351Z,4.50
2018-09-05T18:15:08.368Z,5.04
2018-09-05T18:17:37.917Z,5.00
2018-09-05T18:20:08.141Z,4.55
2018-09-05T18:22:37.749Z,4.55
2018-09-05T18:25:07.752Z,4.82
2018-09-05T18:27:39.032Z,4.85
2018-09-05T18:30:09.422Z,5.00
2018-09-05T18:32:38.985Z,4.97
2018-09-05T18:35:08.306Z,4.42
2018-09-05T18:37:37.855Z,5.15
2018-09-05T18:40:08.606Z,5.37
2018-09-05T18:42:40.922Z,4.87
2018-09-05T18:45:10.901Z,5.05
2018-09-05T18:47:40.163Z,5.25
2018-09-05T18:50:09.786Z,4.30
2018-09-05T18:52:39.063Z,5.20
2018-09-05T18:55:09.766Z,5.28
2018-09-05T18:57:39.630Z,5.12
2018-09-05T19:00:10.611Z,5.12
2018-09-05T19:02:40.304Z,5.22
2018-09-05T19:05:10.931Z,5.53
2018-09-05T19:07:40.351Z,4.75
2018-09-05T19:10:09.724Z,5.12
2018-09-05T19:12:39.841Z,4.92
2018-09-05T19:15:10.138Z,5.37
2018-09-05T19:17:39.658Z,5.20
2018-09-05T19:20:15.980Z,6.08
2018-09-05T19:22:46.923Z,5.05
2018-09-05T19:25:19.367Z,5.17
2018-09-05T19:27:50.221Z,5.75
2018-09-05T19:30:23.085Z,5.40
2018-09-05T19:32:58.873Z,5.75
2018-09-05T19:35:30.316Z,6.00
2018-09-05T19:38:04.834Z,6.42
2018-09-05T19:40:38.027Z,5.47
2018-09-05T19:43:13.841Z,6.05
2018-09-05T19:45:44.628Z,6.00
2018-09-05T19:48:31.334Z,5.72
2018-09-05T19:54:17.985Z,7.08
2018-09-05T19:56:50.932Z,6.12
2018-09-05T19:59:20.094Z,5.62
2018-09-05T20:02:05.919Z,6.03
2018-09-05T20:04:44.891Z,5.45
2018-09-05T20:07:20.577Z,5.40
2018-09-05T20:09:50.892Z,6.05
2018-09-05T20:12:35.840Z,5.85
2018-09-05T20:15:10.649Z,5.12
2018-09-05T20:17:52.972Z,5.30
2018-09-05T20:20:24.696Z,5.27
2018-09-05T20:23:00.694Z,5.67
2018-09-05T20:25:54.085Z,5.87
2018-09-05T20:28:25.387Z,6.35
2018-09-05T20:31:04.257Z,6.85
2018-09-05T20:34:13.477Z,6.60
2018-09-05T20:36:51.293Z,6.72
2018-09-05T20:39:25.514Z,7.00
2018-09-05T20:41:57.980Z,7.30
2018-09-05T20:44:33.813Z,8.13
2018-09-05T20:47:10.099Z,7.45
2018-09-05T20:49:40.901Z,7.92
2018-09-05T20:52:10.571Z,8.25
2018-09-05T20:54:42.147Z,7.95
2018-09-05T20:57:13.024Z,7.85
2018-09-05T20:59:46.291Z,7.58
2018-09-05T21:02:17.641Z,7.87
2018-09-05T21:04:48.866Z,7.78
2018-09-05T21:07:19.796Z,8.23
2018-09-05T21:09:50.833Z,8.43
2018-09-05T21:12:22.115Z,8.20
2018-09-05T21:14:52.527Z,8.05
2018-09-05T21:17:24.460Z,8.75
2018-09-05T21:19:56.557Z,9.75
2018-09-05T21:22:27.374Z,8.60
2018-09-05T21:24:58.941Z,9.28
2018-09-05T21:27:29.773Z,9.73
2018-09-05T21:29:59.824Z,9.68
2018-09-05T21:32:29.059Z,9.55
2018-09-05T21:34:58.869Z,7.90
2018-09-05T21:37:28.331Z,8.30
2018-09-05T21:39:57.828Z,8.55
2018-09-05T21:42:26.911Z,8.13
2018-09-05T21:44:56.166Z,9.03
2018-09-05T21:47:25.938Z,9.63
2018-09-05T21:49:55.451Z,9.25
2018-09-05T21:52:24.989Z,9.00
2018-09-05T21:54:54.121Z,9.50
2018-09-05T21:57:23.066Z,9.48
2018-09-05T21:59:52.223Z,10.63
2018-09-05T22:02:21.298Z,11.33
2018-09-05T22:04:50.971Z,12.00
2018-09-05T22:07:20.299Z,11.68
2018-09-05T22:09:49.216Z,12.75
2018-09-05T22:12:18.457Z,12.88
2018-09-05T22:14:47.650Z,12.45
2018-09-05T22:17:17.393Z,13.48
2018-09-05T22:19:46.817Z,12.78
2018-09-05T22:22:15.968Z,13.60
2018-09-05T22:24:45.053Z,13.60
2018-09-05T22:27:14.051Z,14.75
2018-09-05T22:29:43.071Z,13.00
2018-09-05T22:32:12.454Z,12.82
2018-09-05T22:34:41.675Z,13.55
2018-09-05T22:37:11.437Z,13.43
2018-09-05T22:39:40.960Z,13.48
2018-09-05T22:42:12.608Z,13.45
2018-09-05T22:44:53.738Z,12.88
2018-09-05T22:47:34.002Z,12.68
2018-09-05T22:50:52.719Z,13.00
2018-09-05T22:53:45.307Z,12.05
2018-09-05T22:57:34.820Z,13.00
2018-09-05T23:02:17.646Z,12.53
2018-09-05T23:04:58.395Z,13.10
2018-09-05T23:07:39.424Z,11.83
2018-09-05T23:10:20.320Z,12.60
2018-09-05T23:13:00.300Z,12.47
2018-09-05T23:15:40.290Z,11.75
2018-09-05T23:18:21.622Z,13.10
2018-09-05T23:21:26.683Z,12.53
2018-09-05T23:24:03.838Z,12.28
2018-09-05T23:26:33.591Z,12.25
2018-09-05T23:29:02.755Z,11.45
2018-09-05T23:31:32.076Z,12.95
2018-09-05T23:34:01.836Z,11.78
2018-09-05T23:36:31.376Z,12.50
2018-09-05T23:39:00.804Z,12.90
2018-09-05T23:41:30.439Z,13.55
2018-09-05T23:44:00.125Z,11.95
2018-09-05T23:46:29.330Z,12.73
2018-09-05T23:48:58.539Z,12.78
2018-09-05T23:51:28.075Z,12.13
2018-09-05T23:53:57.831Z,12.80
2018-09-05T23:56:26.889Z,12.37
2018-09-05T23:58:55.995Z,13.20
